createdAt,value
2022-09-03T00:01:06.176Z,51.27
2022-09-03T00:03:37.218Z,51.36
2022-09-03T00:06:12.498Z,51.18
2022-09-03T00:08:44.300Z,51.27
2022-09-03T00:11:31.286Z,52.18
2022-09-03T00:14:10.936Z,51.94
2022-09-03T00:16:57.649Z,51.59
2022-09-03T00:19:25.560Z,52.66
2022-09-03T00:21:55.022Z,52.93
2022-09-03T00:24:19.414Z,53.25
2022-09-03T00:26:45.349Z,52.87
2022-09-03T00:29:12.320Z,54.35
2022-09-03T00:31:42.867Z,53.16
2022-09-03T00:34:23.872Z,52.87
2022-09-03T00:36:45.980Z,52.90
2022-09-03T00:39:09.797Z,54.50
2022-09-03T00:41:38.693Z,53.50
2022-09-03T00:44:31.215Z,53.91
2022-09-03T00:47:11.032Z,53.09
2022-09-03T00:49:45.675Z,53.42
2022-09-03T00:52:35.197Z,54.94
2022-09-03T00:55:09.105Z,54.04
2022-09-03T00:58:01.091Z,53.85
2022-09-03T01:00:23.162Z,53.61
2022-09-03T01:02:50.765Z,55.67
2022-09-03T01:05:34.515Z,55.82
2022-09-03T01:08:21.257Z,55.19
2022-09-03T01:11:04.424Z,54.71
2022-09-03T01:13:54.924Z,54.79
2022-09-03T01:16:53.611Z,55.00
2022-09-03T01:19:45.854Z,54.66
2022-09-03T01:22:10.201Z,55.04
2022-09-03T01:24:58.807Z,55.93
2022-09-03T01:27:47.207Z,55.61
2022-09-03T01:30:17.931Z,55.91
2022-09-03T01:32:54.413Z,56.81
2022-09-03T01:35:23.971Z,57.28
2022-09-03T01:38:20.815Z,55.83
2022-09-03T01:41:33.452Z,56.32
2022-09-03T01:44:07.085Z,56.09
2022-09-03T01:46:38.657Z,56.80
2022-09-03T01:49:35.490Z,57.04
2022-09-03T01:52:12.502Z,57.50
2022-09-03T01:55:13.901Z,57.90
2022-09-03T01:57:46.031Z,56.89
2022-09-03T02:00:20.205Z,58.17
2022-09-03T02:02:43.982Z,58.65
2022-09-03T02:05:11.601Z,57.67
2022-09-03T02:07:35.678Z,57.19
2022-09-03T02:09:57.129Z,57.49
2022-09-03T02:12:20.249Z,57.73
2022-09-03T02:14:42.408Z,58.44
2022-09-03T02:17:07.021Z,58.74
2022-09-03T02:19:30.630Z,58.79
2022-09-03T02:21:55.514Z,60.56
2022-09-03T02:24:17.375Z,60.54
2022-09-03T02:26:38.819Z,61.72
2022-09-03T02:29:02.661Z,60.22
2022-09-03T02:31:24.143Z,60.45
2022-09-03T02:33:48.479Z,59.67
2022-09-03T02:36:12.302Z,61.57
2022-09-03T02:38:34.336Z,61.47
2022-09-03T02:40:55.919Z,61.27
2022-09-03T02:43:42.588Z,61.29
2022-09-03T02:46:08.621Z,60.67
2022-09-03T02:48:30.273Z,61.02
2022-09-03T02:50:51.966Z,60.39
2022-09-03T02:53:13.461Z,60.05
2022-09-03T02:55:35.030Z,61.05
2022-09-03T02:57:57.439Z,60.90
2022-09-03T03:00:18.933Z,62.58
2022-09-03T03:02:40.482Z,61.58
2022-09-03T03:05:02.232Z,60.57
2022-09-03T03:07:23.673Z,60.74
2022-09-03T03:09:45.807Z,60.09
2022-09-03T03:12:09.060Z,60.73
2022-09-03T03:14:30.515Z,59.30
2022-09-03T03:16:52.045Z,59.18
2022-09-03T03:19:13.549Z,58.64
2022-09-03T03:21:34.992Z,58.63
2022-09-03T03:23:56.434Z,59.06
2022-09-03T03:26:20.675Z,57.66
2022-09-03T03:28:42.421Z,57.82
2022-09-03T03:31:11.643Z,56.99
2022-09-03T03:33:33.643Z,57.16
2022-09-03T03:35:55.077Z,57.35
2022-09-03T03:38:16.532Z,57.31
2022-09-03T03:40:39.260Z,57.41
2022-09-03T03:43:00.724Z,57.40
2022-09-03T03:45:22.177Z,57.64
2022-09-03T03:47:43.643Z,57.42
2022-09-03T03:50:05.676Z,57.57
2022-09-03T03:52:27.343Z,57.04
2022-09-03T03:54:50.181Z,57.53
2022-09-03T03:57:11.608Z,57.02
2022-09-03T03:59:33.058Z,56.44
2022-09-03T04:01:55.509Z,55.88
2022-09-03T04:04:17.466Z,55.81
2022-09-03T04:06:38.904Z,56.07
2022-09-03T04:09:00.351Z,55.67
2022-09-03T04:11:24.202Z,55.53
2022-09-03T04:13:47.040Z,55.71
2022-09-03T04:16:15.964Z,55.71
2022-09-03T04:18:38.694Z,55.31
2022-09-03T04:21:07.076Z,54.76
2022-09-03T04:23:28.509Z,55.28
2022-09-03T04:25:53.653Z,56.09
2022-09-03T04:28:15.219Z,56.12
2022-09-03T04:30:37.663Z,55.74
2022-09-03T04:32:59.830Z,55.54
2022-09-03T04:35:23.239Z,55.92
2022-09-03T04:37:44.721Z,56.75
2022-09-03T04:40:06.722Z,56.14
2022-09-03T04:42:28.171Z,57.82
2022-09-03T04:44:49.600Z,57.22
2022-09-03T04:47:11.059Z,57.80
2022-09-03T04:49:32.596Z,57.10
2022-09-03T04:51:54.028Z,58.45
2022-09-03T04:54:15.516Z,57.77
2022-09-03T04:56:39.326Z,57.78
2022-09-03T04:59:06.869Z,58.56
2022-09-03T05:01:30.929Z,58.16
2022-09-03T05:03:52.670Z,58.16
2022-09-03T05:06:17.053Z,57.85
2022-09-03T05:08:38.618Z,59.27
2022-09-03T05:11:00.779Z,59.29
2022-09-03T05:13:22.494Z,59.89
2022-09-03T05:15:45.411Z,58.93
2022-09-03T05:18:06.888Z,59.90
2022-09-03T05:20:30.046Z,59.16
2022-09-03T05:22:52.166Z,59.38
2022-09-03T05:25:13.698Z,58.74
2022-09-03T05:27:35.233Z,59.58
2022-09-03T05:29:56.689Z,60.20
2022-09-03T05:32:18.176Z,60.65
2022-09-03T05:34:39.827Z,60.10
2022-09-03T05:37:01.389Z,59.90
2022-09-03T05:39:22.892Z,59.29
2022-09-03T05:41:44.480Z,59.02
2022-09-03T05:44:06.078Z,58.86
2022-09-03T05:46:32.247Z,58.03
2022-09-03T05:48:54.019Z,57.73
2022-09-03T05:51:17.057Z,56.86
2022-09-03T05:53:40.547Z,56.48
2022-09-03T05:56:06.047Z,56.99
2022-09-03T05:58:31.930Z,56.24
2022-09-03T06:00:53.356Z,55.76
2022-09-03T06:03:14.887Z,55.66
2022-09-03T06:05:36.385Z,54.94
2022-09-03T06:07:57.903Z,55.54
2022-09-03T06:10:23.592Z,55.31
2022-09-03T06:12:51.466Z,54.92
2022-09-03T06:15:13.147Z,54.72
2022-09-03T06:17:34.633Z,54.65
2022-09-03T06:19:56.207Z,54.37
2022-09-03T06:22:17.667Z,54.10
2022-09-03T06:24:39.114Z,54.13
2022-09-03T06:27:01.478Z,53.92
2022-09-03T06:29:22.922Z,53.44
2022-09-03T06:31:44.837Z,53.64
2022-09-03T06:34:06.920Z,53.38
2022-09-03T06:36:28.825Z,53.54
2022-09-03T06:38:55.789Z,53.55
2022-09-03T06:41:21.080Z,53.26
2022-09-03T06:43:42.818Z,52.97
2022-09-03T06:46:10.922Z,52.99
2022-09-03T06:48:34.145Z,52.92
2022-09-03T06:51:01.598Z,53.23
2022-09-03T06:53:24.811Z,52.96
2022-09-03T06:55:55.421Z,53.40
2022-09-03T06:58:16.976Z,53.21
2022-09-03T07:00:38.518Z,53.39
2022-09-03T07:03:00.101Z,53.28
2022-09-03T07:05:21.734Z,52.78
2022-09-03T07:07:44.585Z,52.84
2022-09-03T07:10:06.694Z,52.48
2022-09-03T07:12:28.120Z,52.06
2022-09-03T07:14:51.092Z,51.95
2022-09-03T07:17:12.780Z,51.28
2022-09-03T07:19:34.211Z,51.70
2022-09-03T07:21:55.646Z,51.46
2022-09-03T07:24:18.335Z,51.27
2022-09-03T07:26:44.631Z,51.25
2022-09-03T07:29:11.622Z,51.14
2022-09-03T07:31:42.334Z,51.24
2022-09-03T07:34:10.054Z,50.58
2022-09-03T07:36:43.144Z,50.99
2022-09-03T07:39:04.846Z,50.50
2022-09-03T07:41:28.892Z,50.24
2022-09-03T07:43:50.932Z,50.06
2022-09-03T07:46:13.448Z,49.90
2022-09-03T07:48:37.494Z,49.66
2022-09-03T07:51:01.327Z,49.16
2022-09-03T07:53:23.002Z,49.24
2022-09-03T07:55:45.107Z,48.00
2022-09-03T07:58:07.851Z,48.24
2022-09-03T08:00:29.309Z,47.49
2022-09-03T08:02:52.185Z,47.47
2022-09-03T08:05:20.419Z,47.82
2022-09-03T08:07:41.849Z,47.00
2022-09-03T08:10:03.808Z,47.09
2022-09-03T08:12:25.318Z,46.34
2022-09-03T08:14:46.811Z,46.25
2022-09-03T08:17:08.332Z,45.93
2022-09-03T08:19:29.778Z,45.58
2022-09-03T08:21:51.320Z,45.52
2022-09-03T08:24:16.673Z,44.73
2022-09-03T08:26:41.898Z,44.16
2022-09-03T08:29:04.128Z,43.55
2022-09-03T08:31:26.621Z,43.49
2022-09-03T08:33:50.842Z,43.19
2022-09-03T08:36:19.654Z,42.49
2022-09-03T08:38:43.548Z,42.38
2022-09-03T08:41:35.125Z,41.94
2022-09-03T08:44:21.976Z,41.70
2022-09-03T08:46:51.898Z,41.08
2022-09-03T08:49:17.717Z,40.98
2022-09-03T08:51:41.777Z,40.57
2022-09-03T08:54:04.550Z,39.83
2022-09-03T08:56:31.339Z,39.52
2022-09-03T08:58:52.879Z,39.08
2022-09-03T09:01:34.954Z,38.62
2022-09-03T09:04:24.406Z,38.36
2022-09-03T09:07:07.390Z,37.66
2022-09-03T09:09:49.802Z,37.53
2022-09-03T09:12:21.848Z,37.07
2022-09-03T09:15:03.919Z,36.66
2022-09-03T09:17:31.268Z,37.14
2022-09-03T09:20:15.752Z,36.56
2022-09-03T09:22:58.857Z,36.49
2022-09-03T09:25:23.231Z,35.53
2022-09-03T09:28:16.870Z,36.07
2022-09-03T09:30:39.546Z,36.11
2022-09-03T09:33:00.984Z,35.54
2022-09-03T09:35:23.544Z,35.33
2022-09-03T09:37:50.470Z,35.43
2022-09-03T09:40:23.057Z,35.22
2022-09-03T09:42:44.579Z,34.95
2022-09-03T09:45:11.315Z,34.39
2022-09-03T09:47:39.320Z,34.19
2022-09-03T09:50:02.808Z,34.12
2022-09-03T09:52:27.163Z,34.50
2022-09-03T09:54:48.662Z,33.26
2022-09-03T09:57:24.561Z,33.57
2022-09-03T09:59:50.421Z,33.29
2022-09-03T10:02:26.655Z,33.49
2022-09-03T10:04:48.196Z,33.77
2022-09-03T10:07:32.191Z,33.99
2022-09-03T10:10:14.856Z,34.09
2022-09-03T10:12:43.465Z,34.90
2022-09-03T10:15:17.938Z,35.19
2022-09-03T10:17:49.701Z,35.15
2022-09-03T10:20:27.943Z,34.93
2022-09-03T10:23:05.317Z,35.19
2022-09-03T10:25:35.829Z,35.07
2022-09-03T10:28:00.371Z,35.06
2022-09-03T10:30:23.025Z,35.17
2022-09-03T10:33:26.126Z,34.71
2022-09-03T10:35:53.432Z,35.29
2022-09-03T10:38:28.665Z,34.78
2022-09-03T10:41:09.023Z,35.05
2022-09-03T10:44:07.166Z,34.62
2022-09-03T10:46:52.169Z,34.88
2022-09-03T10:49:28.740Z,34.87
2022-09-03T10:52:15.673Z,34.37
2022-09-03T10:55:00.081Z,34.49
2022-09-03T10:57:36.964Z,33.89
2022-09-03T11:00:12.945Z,33.66
2022-09-03T11:02:43.215Z,33.34
2022-09-03T11:05:20.836Z,32.80
2022-09-03T11:07:50.946Z,32.95
2022-09-03T11:10:16.214Z,32.35
2022-09-03T11:12:52.969Z,32.10
2022-09-03T11:15:48.223Z,31.89
2022-09-03T11:18:12.345Z,32.16
2022-09-03T11:20:34.342Z,31.87
2022-09-03T11:23:01.419Z,31.40
2022-09-03T11:25:31.053Z,30.92
2022-09-03T11:28:26.264Z,30.80
2022-09-03T11:31:33.327Z,30.65
2022-09-03T11:34:06.328Z,29.82
2022-09-03T11:36:35.486Z,29.86
2022-09-03T11:38:57.117Z,29.90
2022-09-03T11:41:28.679Z,30.29
2022-09-03T11:43:50.213Z,30.38
2022-09-03T11:46:28.021Z,30.41
2022-09-03T11:48:52.141Z,30.68
2022-09-03T11:51:33.004Z,30.83
2022-09-03T11:53:55.936Z,30.86
2022-09-03T11:56:19.259Z,31.36
2022-09-03T11:58:42.972Z,31.38
2022-09-03T12:01:10.372Z,31.32
2022-09-03T12:03:42.373Z,30.90
2022-09-03T12:06:29.043Z,31.20
2022-09-03T12:09:31.490Z,31.57
2022-09-03T12:12:14.120Z,31.25
2022-09-03T12:14:57.156Z,31.74
2022-09-03T12:17:49.940Z,31.26
2022-09-03T12:20:14.865Z,31.05
2022-09-03T12:22:38.669Z,31.55
2022-09-03T12:25:15.088Z,30.95
2022-09-03T12:27:36.695Z,31.15
2022-09-03T12:30:00.655Z,31.23
2022-09-03T12:32:22.851Z,31.40
2022-09-03T12:34:47.230Z,31.54
2022-09-03T12:38:04.098Z,32.38
2022-09-03T12:40:07.783Z,32.62
2022-09-03T12:42:31.931Z,32.08
2022-09-03T12:44:53.583Z,31.68
2022-09-03T12:47:35.645Z,31.84
2022-09-03T12:50:04.725Z,31.89
2022-09-03T12:52:50.917Z,31.50
2022-09-03T12:55:32.723Z,31.87
2022-09-03T12:58:04.588Z,32.38
2022-09-03T13:00:28.812Z,33.03
2022-09-03T13:03:12.981Z,32.71
2022-09-03T13:05:48.624Z,32.50
2022-09-03T13:08:17.623Z,32.74
2022-09-03T13:10:43.716Z,32.70
2022-09-03T13:13:19.589Z,32.65
2022-09-03T13:15:41.099Z,33.42
2022-09-03T13:18:21.382Z,34.95
2022-09-03T13:21:07.018Z,35.05
2022-09-03T13:23:48.466Z,35.68
2022-09-03T13:26:16.256Z,36.51
2022-09-03T13:28:58.364Z,37.48
2022-09-03T13:31:43.401Z,38.10
2022-09-03T13:34:27.989Z,38.14
2022-09-03T13:36:55.856Z,38.65
2022-09-03T13:39:41.007Z,39.41
2022-09-03T13:42:13.230Z,40.79
2022-09-03T13:44:58.874Z,44.31
2022-09-03T13:47:34.969Z,44.93
2022-09-03T13:50:26.710Z,47.84
2022-09-03T13:53:00.813Z,49.41
2022-09-03T13:55:31.364Z,49.32
2022-09-03T13:58:27.736Z,49.76
2022-09-03T14:01:09.272Z,49.70
2022-09-03T14:03:52.542Z,51.05
2022-09-03T14:06:19.717Z,49.24
2022-09-03T14:09:11.869Z,52.19
2022-09-03T14:11:54.929Z,53.04
2022-09-03T14:14:50.455Z,54.40
2022-09-03T14:17:23.556Z,58.59
2022-09-03T14:20:04.769Z,58.97
2022-09-03T14:22:50.588Z,59.84
2022-09-03T14:25:17.014Z,57.82
2022-09-03T14:27:38.685Z,57.27
2022-09-03T14:30:03.673Z,57.41
2022-09-03T14:32:35.628Z,59.15
2022-09-03T14:35:00.850Z,60.66
2022-09-03T14:37:37.447Z,58.48
2022-09-03T14:40:13.541Z,60.14
2022-09-03T14:42:54.799Z,62.15
2022-09-03T14:45:47.380Z,64.85
2022-09-03T14:48:21.590Z,66.69
2022-09-03T14:51:20.470Z,69.68
2022-09-03T14:53:51.252Z,71.26
2022-09-03T14:56:29.068Z,72.05
2022-09-03T14:59:18.337Z,73.03
2022-09-03T15:01:40.005Z,69.96
2022-09-03T15:04:10.417Z,74.35
2022-09-03T15:07:07.545Z,72.49
2022-09-03T15:09:54.483Z,71.06
2022-09-03T15:12:34.384Z,68.67
2022-09-03T15:14:58.457Z,70.95
2022-09-03T15:17:53.331Z,69.96
2022-09-03T15:20:24.354Z,71.54
2022-09-03T15:23:13.573Z,71.55
2022-09-03T15:26:16.415Z,74.25
2022-09-03T15:29:06.164Z,74.38
2022-09-03T15:31:58.094Z,74.50
2022-09-03T15:34:22.537Z,73.48
2022-09-03T15:36:49.614Z,72.24
2022-09-03T15:39:16.382Z,71.12
2022-09-03T15:41:47.974Z,73.96
2022-09-03T15:44:20.019Z,73.37
2022-09-03T15:46:44.553Z,75.61
2022-09-03T15:49:19.103Z,75.13
2022-09-03T15:51:57.605Z,74.62
2022-09-03T15:54:31.190Z,73.03
2022-09-03T15:57:05.883Z,72.24
2022-09-03T15:59:54.890Z,70.12
2022-09-03T16:02:20.921Z,69.82
2022-09-03T16:05:05.911Z,69.67
2022-09-03T16:07:34.419Z,72.72
2022-09-03T16:10:26.473Z,69.32
2022-09-03T16:13:23.886Z,72.51
2022-09-03T16:15:58.212Z,72.86
2022-09-03T16:18:30.252Z,72.44
2022-09-03T16:21:01.393Z,72.11
2022-09-03T16:23:30.402Z,72.65
2022-09-03T16:26:05.357Z,72.33
2022-09-03T16:28:37.811Z,74.15
2022-09-03T16:31:36.872Z,71.44
2022-09-03T16:34:18.528Z,72.83
2022-09-03T16:37:13.222Z,72.37
2022-09-03T16:40:03.214Z,71.03
2022-09-03T16:42:32.472Z,70.50
2022-09-03T16:45:30.780Z,70.11
2022-09-03T16:48:14.663Z,70.67
2022-09-03T16:50:53.789Z,69.99
2022-09-03T16:53:44.359Z,71.27
2022-09-03T16:56:50.896Z,70.64
2022-09-03T16:59:41.486Z,69.73
2022-09-03T17:02:40.425Z,71.64
2022-09-03T17:05:33.745Z,73.44
2022-09-03T17:08:12.138Z,71.57
2022-09-03T17:11:02.643Z,73.23
2022-09-03T17:13:53.444Z,75.93
2022-09-03T17:16:42.229Z,75.86
2022-09-03T17:19:09.426Z,77.64
2022-09-03T17:21:55.206Z,77.72
2022-09-03T17:24:36.122Z,77.45
2022-09-03T17:27:21.091Z,79.01
2022-09-03T17:30:00.624Z,77.96
2022-09-03T17:32:46.143Z,78.31
2022-09-03T17:35:26.195Z,77.89
2022-09-03T17:38:12.783Z,78.47
2022-09-03T17:40:52.584Z,78.96
2022-09-03T17:43:21.202Z,78.26
2022-09-03T17:45:56.088Z,76.79
2022-09-03T17:48:51.373Z,76.22
2022-09-03T17:51:23.976Z,75.89
2022-09-03T17:53:52.028Z,75.16
2022-09-03T17:56:26.874Z,74.83
2022-09-03T17:58:55.520Z,75.38
2022-09-03T18:01:21.524Z,77.00
2022-09-03T18:04:12.608Z,78.61
2022-09-03T18:06:46.159Z,76.91
2022-09-03T18:09:22.107Z,76.40
2022-09-03T18:11:50.438Z,76.24
2022-09-03T18:14:33.958Z,75.61
2022-09-03T18:17:09.556Z,76.07
2022-09-03T18:20:14.216Z,76.16
2022-09-03T18:23:12.206Z,76.61
2022-09-03T18:25:54.687Z,76.81
2022-09-03T18:28:43.362Z,75.92
2022-09-03T18:31:23.955Z,75.25
2022-09-03T18:34:04.312Z,73.67
2022-09-03T18:36:44.806Z,73.21
2022-09-03T18:39:33.594Z,73.22
2022-09-03T18:42:28.656Z,73.14
2022-09-03T18:46:28.026Z,73.25
2022-09-03T18:49:14.862Z,73.37
2022-09-03T18:52:01.545Z,74.23
2022-09-03T18:55:12.312Z,74.10
2022-09-03T18:58:29.397Z,74.47
2022-09-03T19:01:28.997Z,74.11
2022-09-03T19:04:19.467Z,74.37
2022-09-03T19:07:09.269Z,74.38
2022-09-03T19:10:10.326Z,74.53
2022-09-03T19:13:31.109Z,74.82
2022-09-03T19:16:23.275Z,75.31
2022-09-03T19:19:32.888Z,78.04
2022-09-03T19:22:27.165Z,78.23
2022-09-03T19:25:10.736Z,81.05
2022-09-03T19:28:05.064Z,82.37
2022-09-03T19:30:50.927Z,80.99
2022-09-03T19:33:49.438Z,79.86
2022-09-03T19:36:45.790Z,79.31
2022-09-03T19:39:54.976Z,78.82
2022-09-03T19:42:58.921Z,79.10
2022-09-03T19:46:09.437Z,79.98
2022-09-03T19:49:38.158Z,79.25
2022-09-03T19:52:41.708Z,78.90
2022-09-03T19:55:22.083Z,79.17
2022-09-03T19:58:20.446Z,79.06
2022-09-03T20:01:07.889Z,78.96
2022-09-03T20:03:49.052Z,78.89
2022-09-03T20:06:30.591Z,78.95
2022-09-03T20:09:10.636Z,78.40
2022-09-03T20:11:32.168Z,79.05
2022-09-03T20:14:12.241Z,79.44
2022-09-03T20:17:15.398Z,80.59
2022-09-03T20:19:54.387Z,79.77
2022-09-03T20:22:29.126Z,79.14
2022-09-03T20:25:26.835Z,78.69
2022-09-03T20:28:11.048Z,78.65
2022-09-03T20:30:46.388Z,78.42
2022-09-03T20:33:34.341Z,78.24
2022-09-03T20:36:21.748Z,80.47
2022-09-03T20:39:15.484Z,81.21
2022-09-03T20:41:55.221Z,80.70
2022-09-03T20:44:25.447Z,79.95
2022-09-03T20:47:05.656Z,79.39
2022-09-03T20:50:09.997Z,79.08
2022-09-03T20:52:53.268Z,79.09
2022-09-03T20:55:21.477Z,78.61
2022-09-03T20:58:04.501Z,78.52
2022-09-03T21:00:27.367Z,78.62
2022-09-03T21:02:55.213Z,78.00
2022-09-03T21:05:26.611Z,77.74
2022-09-03T21:08:03.227Z,77.41
2022-09-03T21:10:37.811Z,77.57
2022-09-03T21:13:41.509Z,77.05
2022-09-03T21:16:34.696Z,77.33
2022-09-03T21:19:17.550Z,78.16
2022-09-03T21:21:53.166Z,78.55
2022-09-03T21:24:32.604Z,77.60
2022-09-03T21:27:01.636Z,77.61
2022-09-03T21:29:30.875Z,77.85
2022-09-03T21:32:15.457Z,77.43
2022-09-03T21:34:44.916Z,77.59
2022-09-03T21:37:11.554Z,80.81
2022-09-03T21:39:42.443Z,79.43
2022-09-03T21:42:09.780Z,78.95
2022-09-03T21:44:40.143Z,80.38
2022-09-03T21:47:11.002Z,79.19
2022-09-03T21:49:39.861Z,78.89
2022-09-03T21:52:08.003Z,79.33
2022-09-03T21:54:33.640Z,79.47
2022-09-03T21:57:22.236Z,78.78
2022-09-03T22:00:05.670Z,79.80
2022-09-03T22:02:29.991Z,78.52
2022-09-03T22:04:52.217Z,78.15
2022-09-03T22:07:26.055Z,77.65
2022-09-03T22:10:16.676Z,77.33
2022-09-03T22:13:00.812Z,77.98
2022-09-03T22:15:22.939Z,78.02
2022-09-03T22:18:07.359Z,77.75
2022-09-03T22:20:28.988Z,78.15
2022-09-03T22:23:03.665Z,77.45
2022-09-03T22:25:48.204Z,77.22
2022-09-03T22:28:32.608Z,77.02
2022-09-03T22:31:17.903Z,77.51
2022-09-03T22:34:04.468Z,77.57
2022-09-03T22:36:40.388Z,77.66
2022-09-03T22:39:28.331Z,79.49
2022-09-03T22:42:10.049Z,78.63
2022-09-03T22:44:59.487Z,81.64
2022-09-03T22:47:48.317Z,82.12
2022-09-03T22:50:12.416Z,81.16
2022-09-03T22:52:44.439Z,80.14
2022-09-03T22:55:14.644Z,79.40
2022-09-03T22:57:43.083Z,78.87
2022-09-03T23:00:08.040Z,78.79
2022-09-03T23:02:31.639Z,78.64
2022-09-03T23:05:10.597Z,79.61
2022-09-03T23:08:06.544Z,78.97
2022-09-03T23:10:32.611Z,78.69
2022-09-03T23:13:07.815Z,78.17
2022-09-03T23:15:31.694Z,78.27
2022-09-03T23:18:09.327Z,80.87
2022-09-03T23:20:34.798Z,80.21
2022-09-03T23:23:05.100Z,80.13
2022-09-03T23:25:32.768Z,80.39
2022-09-03T23:28:00.875Z,80.08
2022-09-03T23:30:22.348Z,79.53
2022-09-03T23:32:43.942Z,79.25
2022-09-03T23:35:17.787Z,79.23
2022-09-03T23:37:57.600Z,81.01
2022-09-03T23:40:32.262Z,80.33
2022-09-03T23:43:07.288Z,79.88
2022-09-03T23:45:43.878Z,81.35
2022-09-03T23:48:43.076Z,80.00
2022-09-03T23:51:26.315Z,79.80
2022-09-03T23:54:11.906Z,83.84
2022-09-03T23:56:48.843Z,82.12
2022-09-03T23:59:27.554Z,83.35
